Time;durP1;ratioP1;P1;durP2;ratioP2;P2;SDS_P1;SDS_P2;PMS_P1;PMS_P2;Temp;Humidity;BMP_temperature;BMP_pressure;BME280_temperature;BME280_humidity;BME280_pressure;Samples;Min_cycle;Max_cycle;Signal;HPM_P1;HPM_P2
2021/05/29 00:01:51;;;;;;;2.08;1.30;;;12.80;91.80;;;;;;5054868;28;20028;-80
2021/05/29 00:04:16;;;;;;;2.15;1.58;;;12.70;92.00;;;;;;5052902;28;20392;-80
2021/05/29 00:06:42;;;;;;;2.25;1.33;;;12.70;92.20;;;;;;5054944;28;20033;-80
2021/05/29 00:09:08;;;;;;;1.63;1.38;;;12.70;92.20;;;;;;5053614;28;20384;-80
2021/05/29 00:11:33;;;;;;;1.67;1.50;;;12.70;92.30;;;;;;5053461;28;20039;-80
2021/05/29 00:13:59;;;;;;;2.75;1.77;;;12.70;92.30;;;;;;5056465;28;20029;-80
2021/05/29 00:16:25;;;;;;;3.72;1.75;;;12.60;92.40;;;;;;5053638;28;20024;-80
2021/05/29 00:18:51;;;;;;;2.33;1.55;;;12.60;92.50;;;;;;5053000;28;20037;-80
2021/05/29 00:21:17;;;;;;;2.50;1.88;;;12.60;92.60;;;;;;5054865;28;20029;-80
2021/05/29 00:23:43;;;;;;;3.10;1.98;;;12.60;92.60;;;;;;5069335;28;20568;-80
2021/05/29 00:26:08;;;;;;;2.60;1.95;;;12.60;92.70;;;;;;5055375;28;20017;-80
2021/05/29 00:28:35;;;;;;;2.83;1.60;;;12.50;92.80;;;;;;5053358;28;20491;-80
2021/05/29 00:31:01;;;;;;;4.47;2.40;;;12.50;93.00;;;;;;5069164;28;20021;-80
2021/05/29 00:33:27;;;;;;;2.58;1.90;;;12.40;93.30;;;;;;5052325;28;20025;-80
2021/05/29 00:35:53;;;;;;;4.22;2.55;;;12.40;93.40;;;;;;5051868;28;20063;-80
2021/05/29 00:38:18;;;;;;;4.60;2.97;;;12.40;93.60;;;;;;5053110;28;20017;-80
2021/05/29 00:40:44;;;;;;;5.07;2.95;;;12.40;93.80;;;;;;5053711;28;20384;-80
2021/05/29 00:43:09;;;;;;;3.72;2.63;;;12.40;94.00;;;;;;5055139;28;20082;-80
2021/05/29 00:45:35;;;;;;;3.22;2.40;;;12.40;94.10;;;;;;5068484;28;20182;-80
2021/05/29 00:48:01;;;;;;;2.78;2.28;;;12.40;94.20;;;;;;5053556;28;20028;-80
2021/05/29 00:50:27;;;;;;;4.18;2.33;;;12.40;94.20;;;;;;5052186;28;20025;-80
2021/05/29 00:52:54;;;;;;;3.95;2.40;;;12.30;94.30;;;;;;5052738;28;20053;-80
2021/05/29 00:55:19;;;;;;;3.20;2.03;;;12.30;94.40;;;;;;5057679;28;20025;-80
2021/05/29 00:57:48;;;;;;;3.08;1.85;;;12.30;94.50;;;;;;5057717;28;20070;-80
2021/05/29 01:00:17;;;;;;;3.35;1.95;;;12.30;94.50;;;;;;5058175;28;20028;-80
2021/05/29 01:02:43;;;;;;;2.55;2.17;;;12.30;94.60;;;;;;5055375;28;20028;-80
2021/05/29 01:05:11;;;;;;;3.13;2.47;;;12.30;94.70;;;;;;5058124;28;20025;-80
2021/05/29 01:07:37;;;;;;;3.38;2.42;;;12.30;94.80;;;;;;5057595;28;20036;-80
2021/05/29 01:10:05;;;;;;;3.65;2.90;;;12.30;94.90;;;;;;5056890;28;20020;-80
2021/05/29 01:12:31;;;;;;;5.70;3.47;;;12.20;94.90;;;;;;5057475;28;20508;-80
2021/05/29 01:14:58;;;;;;;6.05;3.70;;;12.20;95.10;;;;;;5055836;28;20035;-80
2021/05/29 01:17:26;;;;;;;4.38;3.42;;;12.20;95.40;;;;;;5057045;28;20018;-80
2021/05/29 01:19:52;;;;;;;5.95;3.97;;;12.20;95.60;;;;;;5054708;28;20067;-80
2021/05/29 01:22:41;;;;;;;6.10;4.43;;;12.20;95.80;;;;;;5077608;28;20032;-80
2021/05/29 01:25:15;;;;;;;6.05;4.45;;;12.20;95.90;;;;;;5056888;28;20541;-80
2021/05/29 01:27:41;;;;;;;9.52;4.97;;;12.10;96.30;;;;;;5060629;28;20032;-80
2021/05/29 01:30:08;;;;;;;6.00;4.25;;;12.00;96.50;;;;;;5056013;28;20017;-80
2021/05/29 01:32:33;;;;;;;5.10;3.97;;;12.00;96.60;;;;;;5056017;28;20031;-80
2021/05/29 01:35:04;;;;;;;5.85;3.85;;;12.00;96.80;;;;;;5054826;28;20033;-80
2021/05/29 01:37:30;;;;;;;6.43;4.25;;;11.90;96.80;;;;;;5056018;28;20017;-80
2021/05/29 01:39:57;;;;;;;5.55;4.13;;;11.90;96.90;;;;;;5057584;28;20075;-80
2021/05/29 01:42:23;;;;;;;4.70;3.40;;;11.90;97.00;;;;;;5056540;28;20098;-80
2021/05/29 01:44:49;;;;;;;4.15;3.55;;;11.90;97.00;;;;;;5056158;28;20166;-80
2021/05/29 01:47:15;;;;;;;4.50;3.42;;;11.90;97.10;;;;;;5055638;28;20021;-80
2021/05/29 01:49:41;;;;;;;6.38;4.50;;;11.80;97.10;;;;;;5071315;28;20039;-80
2021/05/29 01:52:06;;;;;;;5.85;4.15;;;11.70;97.40;;;;;;5069999;28;20028;-80
2021/05/29 01:54:32;;;;;;;5.45;3.85;;;11.70;97.60;;;;;;5056128;28;20025;-80
2021/05/29 01:56:58;;;;;;;4.93;3.42;;;11.60;97.60;;;;;;5056968;28;20036;-80
2021/05/29 01:59:24;;;;;;;5.10;3.53;;;11.60;97.70;;;;;;5062245;28;20009;-79
2021/05/29 02:01:50;;;;;;;6.05;4.10;;;11.60;97.80;;;;;;5062777;28;20116;-78
2021/05/29 02:04:15;;;;;;;4.32;3.72;;;11.60;97.90;;;;;;5059206;28;20029;-80
2021/05/29 02:06:41;;;;;;;5.15;4.18;;;11.50;98.10;;;;;;5057081;28;20029;-80
2021/05/29 02:09:07;;;;;;;7.40;4.20;;;11.60;98.10;;;;;;5057532;28;20013;-80
2021/05/29 02:11:33;;;;;;;6.47;3.80;;;11.50;98.20;;;;;;5055760;28;20102;-80
2021/05/29 02:13:59;;;;;;;6.78;4.15;;;11.50;98.30;;;;;;5055905;28;20435;-80
2021/05/29 02:16:24;;;;;;;6.45;4.53;;;11.50;98.40;;;;;;5055726;28;20095;-80
2021/05/29 02:18:50;;;;;;;5.32;3.95;;;11.40;98.40;;;;;;5054354;28;20096;-80
2021/05/29 02:21:16;;;;;;;6.38;4.80;;;11.40;98.50;;;;;;5056523;28;20017;-80
2021/05/29 02:23:47;;;;;;;9.75;4.80;;;11.40;98.50;;;;;;5055915;28;20017;-80
2021/05/29 02:26:19;;;;;;;8.52;5.35;;;11.40;98.60;;;;;;5058397;28;20443;-80
2021/05/29 02:28:49;;;;;;;10.23;6.47;;;11.40;98.80;;;;;;5058026;28;20476;-80
2021/05/29 02:31:16;;;;;;;10.18;5.20;;;11.40;99.00;;;;;;5071834;28;20483;-80
2021/05/29 02:33:42;;;;;;;9.88;5.65;;;11.40;99.10;;;;;;5054046;28;20123;-80
2021/05/29 02:36:08;;;;;;;10.32;6.53;;;11.30;99.10;;;;;;5054071;28;20100;-80
2021/05/29 02:38:34;;;;;;;11.27;5.82;;;11.40;99.30;;;;;;5071228;28;20400;-80
2021/05/29 02:41:01;;;;;;;8.88;6.15;;;11.30;99.40;;;;;;5057711;28;20021;-80
2021/05/29 02:43:27;;;;;;;7.82;6.00;;;11.30;99.50;;;;;;5055186;28;20021;-80
2021/05/29 02:45:53;;;;;;;10.68;6.65;;;11.30;99.50;;;;;;5055228;28;20047;-80
2021/05/29 02:48:19;;;;;;;9.27;6.32;;;11.30;99.60;;;;;;5054771;28;20556;-80
2021/05/29 02:50:45;;;;;;;8.70;6.70;;;11.30;99.70;;;;;;5056773;28;20100;-80
2021/05/29 02:53:13;;;;;;;10.95;6.95;;;11.30;99.90;;;;;;5053590;28;20031;-80
2021/05/29 02:55:40;;;;;;;11.50;7.13;;;11.20;99.90;;;;;;5055514;28;20515;-80
2021/05/29 02:58:06;;;;;;;8.23;5.65;;;11.20;99.90;;;;;;5057498;28;20020;-80
2021/05/29 03:00:34;;;;;;;7.00;5.47;;;11.20;99.80;;;;;;5070339;28;20017;-80
2021/05/29 03:03:02;;;;;;;5.68;4.32;;;11.20;99.80;;;;;;5057198;28;20021;-80
2021/05/29 03:05:28;;;;;;;7.00;4.63;;;11.20;99.80;;;;;;5056274;28;20025;-80
2021/05/29 03:07:54;;;;;;;7.43;5.00;;;11.20;99.80;;;;;;5055137;28;20511;-80
2021/05/29 03:10:20;;;;;;;7.03;4.88;;;11.10;99.70;;;;;;5055898;28;20025;-80
2021/05/29 03:12:47;;;;;;;6.93;4.57;;;11.10;99.70;;;;;;5052890;28;20036;-80
2021/05/29 03:15:16;;;;;;;7.43;5.22;;;11.10;99.80;;;;;;5052441;28;20074;-80
2021/05/29 03:17:42;;;;;;;10.50;6.17;;;11.10;99.80;;;;;;5053806;28;20025;-80
2021/05/29 03:20:10;;;;;;;8.00;5.53;;;11.00;99.90;;;;;;5052910;28;20056;-80
2021/05/29 03:22:36;;;;;;;7.03;5.20;;;11.00;99.90;;;;;;5057788;28;20027;-80
2021/05/29 03:25:02;;;;;;;7.68;5.30;;;11.00;99.90;;;;;;5054467;28;20028;-80
2021/05/29 03:27:28;;;;;;;8.02;5.50;;;11.00;99.80;;;;;;5057103;28;20023;-80
2021/05/29 03:29:54;;;;;;;8.90;5.30;;;11.00;99.90;;;;;;5053938;28;20100;-80
2021/05/29 03:32:19;;;;;;;7.93;5.18;;;10.90;99.90;;;;;;5054221;28;20032;-79
2021/05/29 03:34:45;;;;;;;6.22;4.68;;;10.80;99.90;;;;;;5068385;28;20056;-80
2021/05/29 03:37:11;;;;;;;5.82;4.47;;;10.90;99.90;;;;;;5052637;28;20025;-80
2021/05/29 03:39:37;;;;;;;8.68;5.40;;;10.80;99.90;;;;;;5057137;28;20094;-80
2021/05/29 03:42:04;;;;;;;8.13;5.35;;;10.80;99.90;;;;;;5054497;28;20021;-79
2021/05/29 03:44:30;;;;;;;7.53;5.50;;;10.80;99.90;;;;;;5054591;28;20055;-80
2021/05/29 03:46:55;;;;;;;8.82;5.65;;;10.70;99.90;;;;;;5053608;28;20052;-80
2021/05/29 03:49:21;;;;;;;8.45;4.93;;;10.70;99.90;;;;;;5054075;28;20025;-80
2021/05/29 03:51:46;;;;;;;7.38;5.15;;;10.80;99.90;;;;;;5068334;28;20392;-79
2021/05/29 03:54:12;;;;;;;6.13;5.07;;;10.70;99.90;;;;;;5052195;28;20472;-79
2021/05/29 03:56:38;;;;;;;8.77;5.90;;;10.80;99.90;;;;;;5054534;28;20582;-80
2021/05/29 03:59:04;;;;;;;8.93;5.65;;;10.80;99.90;;;;;;5069886;28;20017;-80
2021/05/29 04:01:30;;;;;;;6.60;5.50;;;10.80;99.90;;;;;;5054530;28;20020;-79
2021/05/29 04:03:57;;;;;;;7.10;5.30;;;10.80;99.90;;;;;;5053519;28;20376;-80
2021/05/29 04:06:22;;;;;;;7.88;5.82;;;10.80;99.90;;;;;;5055481;28;20021;-80
2021/05/29 04:08:48;;;;;;;8.95;6.57;;;10.80;99.90;;;;;;5054983;28;20029;-80
2021/05/29 04:11:14;;;;;;;7.32;5.32;;;10.80;99.90;;;;;;5053687;28;20028;-80
2021/05/29 04:13:39;;;;;;;9.02;6.38;;;10.80;99.90;;;;;;5054464;28;20123;-80
2021/05/29 04:16:05;;;;;;;10.13;6.28;;;10.80;99.90;;;;;;5054401;28;20021;-80
2021/05/29 04:18:30;;;;;;;8.02;5.50;;;10.80;99.90;;;;;;5052719;28;20025;-80
2021/05/29 04:20:56;;;;;;;9.40;5.63;;;10.80;99.90;;;;;;5052296;28;20465;-80
2021/05/29 04:23:21;;;;;;;10.13;6.38;;;10.80;99.90;;;;;;5054400;28;20021;-79
2021/05/29 04:25:47;;;;;;;8.65;5.82;;;10.80;99.90;;;;;;5056031;28;20372;-80
2021/05/29 04:28:13;;;;;;;7.53;5.65;;;10.90;99.90;;;;;;5057955;28;20499;-80
2021/05/29 04:30:39;;;;;;;9.45;5.38;;;10.90;99.90;;;;;;5058343;28;20056;-80
2021/05/29 04:33:05;;;;;;;7.65;5.95;;;10.90;99.90;;;;;;5056685;28;20059;-80
2021/05/29 04:35:30;;;;;;;10.73;6.35;;;10.90;99.90;;;;;;5071792;28;20028;-80
2021/05/29 04:37:56;;;;;;;11.85;8.10;;;11.00;99.90;;;;;;5055290;28;20013;-80
2021/05/29 04:40:24;;;;;;;10.93;7.80;;;11.00;99.90;;;;;;5075126;28;20052;-80
2021/05/29 04:42:50;;;;;;;11.13;8.50;;;11.00;99.90;;;;;;5060012;28;20103;-80
2021/05/29 04:45:16;;;;;;;11.18;8.57;;;11.10;99.90;;;;;;5057310;28;20071;-80
2021/05/29 04:47:43;;;;;;;12.15;7.82;;;11.00;99.90;;;;;;5056739;28;20032;-80
2021/05/29 04:50:10;;;;;;;12.63;8.80;;;11.10;99.90;;;;;;5056445;28;20109;-80
2021/05/29 04:52:37;;;;;;;12.38;8.98;;;11.10;99.90;;;;;;5056124;28;20013;-80
2021/05/29 04:55:04;;;;;;;12.25;8.23;;;11.10;99.90;;;;;;5070743;28;20108;-81
2021/05/29 04:57:29;;;;;;;14.02;8.60;;;11.20;99.90;;;;;;5057675;28;20437;-80
2021/05/29 04:59:55;;;;;;;13.93;9.05;;;11.10;99.90;;;;;;5059643;28;20495;-80
2021/05/29 05:02:20;;;;;;;13.43;8.75;;;11.10;99.90;;;;;;5060169;28;20092;-80
2021/05/29 05:04:46;;;;;;;10.80;7.82;;;11.20;99.90;;;;;;5057867;28;20032;-80
2021/05/29 05:07:12;;;;;;;12.80;8.98;;;11.20;99.90;;;;;;5059981;28;20031;-80
2021/05/29 05:09:37;;;;;;;14.13;9.10;;;11.20;99.90;;;;;;5056014;28;20457;-80
2021/05/29 05:12:03;;;;;;;13.73;9.00;;;11.30;99.90;;;;;;5058177;28;20083;-80
2021/05/29 05:14:29;;;;;;;13.98;9.68;;;11.30;99.90;;;;;;5056296;28;20021;-80
2021/05/29 05:16:54;;;;;;;14.60;9.98;;;11.30;99.90;;;;;;5057419;28;20419;-80
2021/05/29 05:19:20;;;;;;;12.60;9.32;;;11.30;99.90;;;;;;5073988;28;20047;-83
2021/05/29 05:21:45;;;;;;;13.65;9.55;;;11.40;99.90;;;;;;5064434;28;20369;-81
2021/05/29 05:24:11;;;;;;;10.23;8.25;;;11.40;99.90;;;;;;5070123;28;20087;-80
2021/05/29 05:26:36;;;;;;;13.50;9.40;;;11.40;99.90;;;;;;5077638;28;20036;-80
2021/05/29 05:29:02;;;;;;;14.00;9.27;;;11.50;99.90;;;;;;5053865;28;20079;-80
2021/05/29 05:31:28;;;;;;;14.35;9.57;;;11.50;99.90;;;;;;5055184;28;20497;-80
2021/05/29 05:33:55;;;;;;;16.45;11.65;;;11.50;99.90;;;;;;5055493;28;20028;-80
2021/05/29 05:36:21;;;;;;;16.85;11.25;;;11.60;99.90;;;;;;5070844;28;20024;-80
2021/05/29 05:38:46;;;;;;;17.20;11.35;;;11.60;99.90;;;;;;5055038;28;20052;-80
2021/05/29 05:41:13;;;;;;;17.58;10.52;;;11.70;99.90;;;;;;5054844;28;20025;-80
2021/05/29 05:43:39;;;;;;;16.67;9.63;;;11.70;99.90;;;;;;5055208;28;20436;-80
2021/05/29 05:46:05;;;;;;;14.23;9.85;;;11.70;99.90;;;;;;5055282;28;20544;-80
2021/05/29 05:48:33;;;;;;;14.80;9.57;;;11.80;99.90;;;;;;5053833;28;20385;-79
2021/05/29 05:51:00;;;;;;;15.35;9.40;;;11.80;99.90;;;;;;5055306;28;20090;-84
2021/05/29 05:53:28;;;;;;;14.82;9.93;;;11.80;99.90;;;;;;5055269;28;20044;-79
2021/05/29 05:55:59;;;;;;;15.43;10.60;;;11.90;99.90;;;;;;5054994;28;20033;-80
2021/05/29 05:58:25;;;;;;;16.88;11.95;;;11.90;99.90;;;;;;5053697;28;20491;-80
2021/05/29 06:00:51;;;;;;;14.77;10.32;;;11.90;99.90;;;;;;5065544;28;20032;-81
2021/05/29 06:03:19;;;;;;;13.93;10.25;;;12.00;99.90;;;;;;5074457;28;20082;-80
2021/05/29 06:05:44;;;;;;;17.55;11.38;;;12.00;99.90;;;;;;5073353;28;20024;-81
2021/05/29 06:08:10;;;;;;;17.60;11.60;;;12.00;99.90;;;;;;5072914;28;20078;-83
2021/05/29 06:10:35;;;;;;;14.35;11.45;;;12.10;99.90;;;;;;5074442;28;20111;-82
2021/05/29 06:13:01;;;;;;;16.17;11.80;;;12.10;99.90;;;;;;5074586;28;20402;-80
2021/05/29 06:20:55;;;;;;;17.95;13.13;;;12.20;99.90;;;;;;5073555;28;20503;-80
2021/05/29 06:23:21;;;;;;;19.67;13.02;;;12.20;99.90;;;;;;5074102;28;20025;-80
2021/05/29 06:25:46;;;;;;;15.18;12.23;;;12.30;99.90;;;;;;5089817;28;20043;-80
2021/05/29 06:28:12;;;;;;;18.10;12.18;;;12.30;99.90;;;;;;5073959;28;20052;-80
2021/05/29 06:30:38;;;;;;;15.43;11.73;;;12.40;99.90;;;;;;5074042;28;20089;-80
2021/05/29 06:33:04;;;;;;;19.35;13.68;;;12.40;99.90;;;;;;5074059;28;20044;-80
2021/05/29 06:35:31;;;;;;;18.58;13.18;;;12.40;99.90;;;;;;5072518;28;20025;-80
2021/05/29 06:37:56;;;;;;;20.05;13.63;;;12.50;99.90;;;;;;5073941;28;20029;-80
2021/05/29 06:40:22;;;;;;;17.38;12.60;;;12.50;99.90;;;;;;5072441;28;20044;-80
2021/05/29 06:42:48;;;;;;;21.27;13.80;;;12.50;99.90;;;;;;5072408;28;20056;-79
2021/05/29 06:45:14;;;;;;;18.88;14.02;;;12.60;99.90;;;;;;5073774;28;20383;-79
2021/05/29 06:47:39;;;;;;;18.27;13.88;;;12.60;99.90;;;;;;5073656;28;20060;-81
2021/05/29 06:50:06;;;;;;;20.88;14.52;;;12.60;99.90;;;;;;5073568;28;20047;-80
2021/05/29 06:52:34;;;;;;;19.42;13.98;;;12.60;99.90;;;;;;5073005;28;20028;-79
2021/05/29 07:00:10;;;;;;;18.58;13.85;;;12.80;99.90;;;;;;5070965;28;20587;-79
2021/05/29 07:02:36;;;;;;;21.05;13.95;;;12.80;99.90;;;;;;5073176;28;20044;-79
2021/05/29 07:05:05;;;;;;;19.17;13.43;;;12.90;99.90;;;;;;5072776;28;20476;-79
2021/05/29 07:07:31;;;;;;;19.33;13.37;;;12.90;99.90;;;;;;5072082;28;20387;-79
2021/05/29 07:09:57;;;;;;;17.83;12.77;;;12.90;99.90;;;;;;5073186;28;20020;-79
2021/05/29 07:12:22;;;;;;;19.83;11.45;;;13.00;99.90;;;;;;5070560;28;20098;-79
2021/05/29 07:14:48;;;;;;;23.02;14.85;;;13.00;99.90;;;;;;5073228;28;20464;-79
2021/05/29 07:17:14;;;;;;;18.30;13.48;;;13.00;99.90;;;;;;5073141;28;20369;-79
2021/05/29 07:19:40;;;;;;;17.65;13.35;;;13.10;99.90;;;;;;5072950;28;20040;-80
2021/05/29 07:22:05;;;;;;;16.45;12.27;;;13.10;99.90;;;;;;5073149;28;20514;-80
2021/05/29 07:24:33;;;;;;;13.82;10.07;;;13.20;99.90;;;;;;5082364;28;20038;-80
2021/05/29 07:26:59;;;;;;;18.25;12.88;;;13.20;99.90;;;;;;5092730;28;20024;-80
2021/05/29 07:29:26;;;;;;;30.30;15.57;;;13.30;99.90;;;;;;5072683;28;20024;-80
2021/05/29 07:31:52;;;;;;;20.65;14.27;;;13.40;99.90;;;;;;5072860;28;20070;-80
2021/05/29 07:34:17;;;;;;;19.05;13.05;;;13.40;99.90;;;;;;5072895;28;20391;-80
2021/05/29 07:36:43;;;;;;;18.05;14.15;;;13.50;99.80;;;;;;5072388;28;20023;-80
2021/05/29 07:39:09;;;;;;;13.98;10.13;;;13.50;99.90;;;;;;5072059;28;20040;-80
2021/05/29 07:41:35;;;;;;;21.55;13.30;;;13.60;99.90;;;;;;5072087;28;20021;-80
2021/05/29 07:44:02;;;;;;;17.38;13.23;;;13.70;99.90;;;;;;5072136;28;20062;-80
2021/05/29 07:46:29;;;;;;;19.55;13.13;;;13.70;99.40;;;;;;5071559;28;20367;-80
2021/05/29 07:48:54;;;;;;;19.35;12.30;;;13.80;99.30;;;;;;5072012;28;20399;-80
2021/05/29 07:51:20;;;;;;;13.57;9.88;;;13.90;99.30;;;;;;5072011;28;20502;-80
2021/05/29 07:53:46;;;;;;;17.35;11.30;;;14.00;99.20;;;;;;5071574;28;20029;-80
2021/05/29 07:56:15;;;;;;;18.00;12.82;;;14.10;98.90;;;;;;5071858;28;20021;-80
2021/05/29 07:58:42;;;;;;;16.52;11.63;;;14.20;98.70;;;;;;5071586;28;20020;-80
2021/05/29 08:01:09;;;;;;;11.73;9.13;;;14.20;98.50;;;;;;5072446;28;20039;-80
2021/05/29 08:03:35;;;;;;;14.05;10.35;;;14.40;98.60;;;;;;5077655;28;20051;-80
2021/05/29 08:06:04;;;;;;;16.67;10.77;;;14.50;98.30;;;;;;5079710;28;20440;-80
2021/05/29 08:08:30;;;;;;;;;;;14.50;98.40;;;;;;5079702;28;20035;-80
2021/05/29 08:10:59;;;;;;;15.02;10.60;;;14.50;98.00;;;;;;5077213;28;19999;-84
2021/05/29 08:13:24;;;;;;;14.27;10.77;;;14.60;98.40;;;;;;5078968;28;20074;-80
2021/05/29 08:15:50;;;;;;;12.15;9.43;;;14.70;98.20;;;;;;5078919;28;20024;-81
2021/05/29 08:18:18;;;;;;;9.38;7.22;;;14.90;97.90;;;;;;5079547;28;20104;-80
2021/05/29 08:20:46;;;;;;;11.25;7.88;;;14.90;97.60;;;;;;5079425;28;20487;-80
2021/05/29 08:23:11;;;;;;;13.48;9.82;;;15.00;97.40;;;;;;5079333;28;20028;-80
2021/05/29 08:25:37;;;;;;;12.20;9.10;;;15.10;96.70;;;;;;5079461;28;20082;-80
2021/05/29 08:28:03;;;;;;;11.82;9.20;;;15.10;96.20;;;;;;5078947;28;20036;-80
2021/05/29 08:30:29;;;;;;;9.25;7.75;;;15.20;95.00;;;;;;5078892;28;20016;-79
2021/05/29 08:32:55;;;;;;;11.18;8.20;;;15.30;94.10;;;;;;5079012;28;20388;-80
2021/05/29 08:35:21;;;;;;;9.80;7.13;;;15.30;93.70;;;;;;5077897;28;20613;-80
2021/05/29 08:37:47;;;;;;;9.95;6.45;;;15.40;94.00;;;;;;5078770;28;20103;-80
2021/05/29 08:40:14;;;;;;;7.57;5.97;;;15.50;94.40;;;;;;5078712;28;20028;-80
2021/05/29 08:42:44;;;;;;;10.98;6.60;;;15.60;94.30;;;;;;5078458;28;20023;-79
2021/05/29 08:45:10;;;;;;;6.75;5.28;;;15.80;92.50;;;;;;5078778;28;20077;-79
2021/05/29 08:47:36;;;;;;;6.75;5.55;;;15.80;92.40;;;;;;5093942;28;20369;-80
2021/05/29 08:50:03;;;;;;;8.25;5.80;;;15.90;91.40;;;;;;5077976;28;20031;-80
2021/05/29 08:52:35;;;;;;;7.63;6.18;;;16.00;91.60;;;;;;5079239;28;20032;-80
2021/05/29 08:55:01;;;;;;;9.93;7.40;;;16.10;92.10;;;;;;5079215;28;20044;-80
2021/05/29 08:57:26;;;;;;;8.50;6.53;;;16.20;91.20;;;;;;5079094;28;20097;-80
2021/05/29 08:59:52;;;;;;;10.38;7.25;;;16.30;90.80;;;;;;5078808;28;20436;-80
2021/05/29 09:02:17;;;;;;;9.93;7.18;;;16.40;90.50;;;;;;5079039;28;20035;-80
2021/05/29 09:05:00;;;;;;;7.00;5.82;;;16.50;90.50;;;;;;5078993;28;20036;-80
2021/05/29 09:07:26;;;;;;;14.20;10.57;;;16.60;90.80;;;;;;5078816;28;20020;-80
2021/05/29 09:10:18;;;;;;;12.68;8.98;;;16.60;90.80;;;;;;5078504;28;20029;-80
2021/05/29 09:13:02;;;;;;;12.40;9.02;;;16.90;90.50;;;;;;5075825;28;20029;-80
2021/05/29 09:15:43;;;;;;;11.68;8.95;;;17.00;90.20;;;;;;5075993;28;20036;-80
2021/05/29 09:18:22;;;;;;;11.73;8.65;;;17.10;89.30;;;;;;5055490;28;20020;-80
2021/05/29 09:20:47;;;;;;;13.48;8.82;;;17.30;90.00;;;;;;5055405;28;20377;-80
2021/05/29 09:23:12;;;;;;;10.13;6.43;;;17.40;89.20;;;;;;5054296;28;20602;-80
2021/05/29 09:25:52;;;;;;;7.20;5.88;;;17.60;89.30;;;;;;5055817;28;20040;-80
2021/05/29 09:28:25;;;;;;;9.43;7.55;;;17.90;89.40;;;;;;5055752;28;20044;-78
2021/05/29 09:30:53;;;;;;;8.75;6.70;;;18.20;87.70;;;;;;5055254;28;20025;-78
2021/05/29 09:33:22;;;;;;;10.63;7.65;;;18.30;86.60;;;;;;5055471;28;20075;-79
2021/05/29 09:35:59;;;;;;;12.05;8.50;;;18.60;86.50;;;;;;5055171;28;20025;-78
2021/05/29 09:38:36;;;;;;;10.20;7.95;;;18.80;83.90;;;;;;5053815;28;20419;-78
2021/05/29 09:41:03;;;;;;;5.68;4.82;;;18.70;82.90;;;;;;5067333;28;20430;-78
2021/05/29 09:43:29;;;;;;;5.90;3.92;;;18.70;82.60;;;;;;5074848;28;20066;-78
2021/05/29 09:46:05;;;;;;;6.20;4.72;;;18.70;82.80;;;;;;5075294;28;20028;-78
2021/05/29 09:48:32;;;;;;;7.82;6.05;;;18.80;83.20;;;;;;5090534;28;20059;-78
2021/05/29 09:51:07;;;;;;;7.38;5.63;;;18.80;83.30;;;;;;5074932;28;20031;-78
2021/05/29 09:53:41;;;;;;;4.85;4.35;;;19.00;82.80;;;;;;5073384;28;20031;-78
2021/05/29 09:56:23;;;;;;;8.90;5.88;;;19.00;82.60;;;;;;5071356;28;20017;-78
2021/05/29 09:59:00;;;;;;;6.25;5.57;;;19.20;83.10;;;;;;5073913;28;20107;-80
2021/05/29 10:01:45;;;;;;;6.60;4.72;;;19.70;80.90;;;;;;5074917;28;20017;-79
2021/05/29 10:04:37;;;;;;;6.00;4.38;;;21.10;77.20;;;;;;5073832;28;20060;-78
2021/05/29 10:07:12;;;;;;;5.30;4.80;;;23.00;70.00;;;;;;5073081;28;20025;-79
2021/05/29 10:09:37;;;;;;;5.75;4.68;;;22.70;64.20;;;;;;5072575;28;20107;-79
2021/05/29 10:12:04;;;;;;;4.55;3.10;;;23.60;64.90;;;;;;5073166;28;20056;-79
2021/05/29 10:14:30;;;;;;;7.20;3.67;;;24.80;62.60;;;;;;5074341;28;20073;-79
2021/05/29 10:17:01;;;;;;;6.40;4.40;;;25.10;59.90;;;;;;5074240;28;20016;-78
2021/05/29 10:19:28;;;;;;;3.53;2.80;;;26.20;55.00;;;;;;5074172;28;20499;-79
2021/05/29 10:21:54;;;;;;;4.25;3.10;;;27.50;53.70;;;;;;5074314;28;20025;-79
2021/05/29 10:24:22;;;;;;;7.15;4.75;;;27.70;51.60;;;;;;5074173;28;20017;-79
2021/05/29 10:26:48;;;;;;;3.88;3.13;;;28.50;48.00;;;;;;5073482;28;20052;-79
2021/05/29 10:29:14;;;;;;;5.47;4.00;;;28.20;47.90;;;;;;5074104;28;20539;-78
2021/05/29 10:31:42;;;;;;;4.97;4.10;;;27.60;48.40;;;;;;5074148;28;20024;-80
2021/05/29 10:34:08;;;;;;;3.65;2.92;;;28.00;48.30;;;;;;5074195;28;20032;-78
2021/05/29 10:36:41;;;;;;;4.70;3.28;;;28.90;47.50;;;;;;5074353;28;20012;-78
2021/05/29 10:39:13;;;;;;;3.90;2.85;;;30.40;46.20;;;;;;5074181;28;20044;-77
2021/05/29 10:41:57;;;;;;;5.28;3.33;;;30.70;44.40;;;;;;5074255;28;20025;-78
2021/05/29 10:44:26;;;;;;;5.43;2.95;;;31.90;42.10;;;;;;5074217;28;20388;-78
2021/05/29 10:47:18;;;;;;;3.22;2.92;;;32.80;42.00;;;;;;5074051;28;20528;-78
2021/05/29 10:49:51;;;;;;;3.58;2.60;;;34.00;40.10;;;;;;5070434;28;20456;-77
2021/05/29 10:52:36;;;;;;;2.65;1.98;;;34.30;39.30;;;;;;5072969;28;20021;-77
2021/05/29 10:55:17;;;;;;;5.28;3.60;;;33.60;40.00;;;;;;5072980;28;20468;-77
2021/05/29 10:57:50;;;;;;;4.20;2.78;;;31.70;39.40;;;;;;5072228;28;20444;-77
2021/05/29 11:00:40;;;;;;;6.07;4.28;;;29.80;42.10;;;;;;5072255;28;20020;-77
2021/05/29 11:03:21;;;;;;;3.65;2.80;;;29.00;43.20;;;;;;5067820;28;20102;-77
2021/05/29 11:05:52;;;;;;;3.90;2.95;;;29.20;43.70;;;;;;5070706;28;20017;-77
2021/05/29 11:08:50;;;;;;;3.58;2.53;;;28.80;43.30;;;;;;5072958;28;20021;-77
2021/05/29 11:11:47;;;;;;;3.72;2.17;;;28.30;44.30;;;;;;5071553;28;20016;-77
2021/05/29 11:14:20;;;;;;;3.70;2.65;;;27.80;45.40;;;;;;5072683;28;20120;-76
2021/05/29 11:16:46;;;;;;;4.13;2.60;;;28.80;45.00;;;;;;5085309;28;20028;-76
2021/05/29 11:19:21;;;;;;;6.00;4.78;;;30.00;43.30;;;;;;5070938;28;20024;-76
2021/05/29 11:22:19;;;;;;;7.22;4.45;;;29.70;42.00;;;;;;5070538;28;20010;-77
2021/05/29 11:24:54;;;;;;;4.03;3.20;;;28.50;43.30;;;;;;5073045;28;20141;-77
2021/05/29 11:27:21;;;;;;;2.65;2.20;;;28.00;45.70;;;;;;5072938;28;20614;-78
2021/05/29 11:29:53;;;;;;;4.85;3.22;;;28.20;44.70;;;;;;5070607;28;20560;-78
2021/05/29 11:33:20;;;;;;;5.80;5.30;;;27.20;44.60;;;;;;5072120;28;20025;-78
2021/05/29 11:35:33;;;;;;;3.78;3.15;;;26.90;45.90;;;;;;5067178;28;20071;-77
2021/05/29 11:38:07;;;;;;;3.13;2.42;;;27.60;46.20;;;;;;5072525;28;20028;-77
2021/05/29 11:40:41;;;;;;;2.65;1.67;;;29.50;43.90;;;;;;5071979;28;20135;-77
2021/05/29 11:43:06;;;;;;;5.28;4.35;;;29.90;42.80;;;;;;5071882;28;20033;-77
2021/05/29 11:45:32;;;;;;;4.55;3.67;;;29.10;42.10;;;;;;5088938;28;20024;-77
2021/05/29 11:47:57;;;;;;;5.30;3.47;;;28.10;43.60;;;;;;5073273;28;20085;-77
2021/05/29 11:50:23;;;;;;;5.03;2.95;;;27.10;44.90;;;;;;5073158;28;20024;-77
2021/05/29 11:52:48;;;;;;;3.03;2.45;;;26.60;46.00;;;;;;5073146;28;20433;-77
2021/05/29 11:55:14;;;;;;;5.03;3.65;;;26.80;46.70;;;;;;5088780;28;20025;-77
2021/05/29 11:58:03;;;;;;;6.03;3.45;;;27.50;45.60;;;;;;5071942;28;20016;-77
2021/05/29 12:00:30;;;;;;;4.93;2.83;;;27.40;45.30;;;;;;5073296;28;20021;-77
2021/05/29 12:02:56;;;;;;;5.03;3.70;;;26.50;46.20;;;;;;5073031;28;20114;-77
2021/05/29 12:05:37;;;;;;;7.68;3.60;;;25.80;46.60;;;;;;5072904;28;20504;-77
2021/05/29 12:08:06;;;;;;;4.88;3.10;;;25.20;47.90;;;;;;5073153;28;20024;-77
2021/05/29 12:10:50;;;;;;;3.55;2.30;;;24.90;49.60;;;;;;5073149;28;20066;-77
2021/05/29 12:13:30;;;;;;;2.47;1.90;;;26.30;49.30;;;;;;5071559;28;20442;-77
2021/05/29 12:16:02;;;;;;;4.03;2.83;;;27.60;46.90;;;;;;5072992;28;20023;-77
2021/05/29 12:18:38;;;;;;;2.78;1.85;;;28.30;44.70;;;;;;5071661;28;20069;-77
2021/05/29 12:21:06;;;;;;;4.55;2.58;;;29.10;44.20;;;;;;5072916;28;20031;-77
2021/05/29 12:23:50;;;;;;;2.70;2.20;;;28.50;42.90;;;;;;5072821;28;20157;-77
2021/05/29 12:26:16;;;;;;;3.72;2.00;;;28.10;43.50;;;;;;5072925;28;20114;-77
2021/05/29 12:28:41;;;;;;;2.95;1.75;;;28.40;43.60;;;;;;5072005;28;20028;-77
2021/05/29 12:31:07;;;;;;;2.95;2.17;;;28.30;43.80;;;;;;5087653;28;20047;-77
2021/05/29 12:33:33;;;;;;;3.30;2.10;;;27.60;44.70;;;;;;5072115;28;20089;-77
2021/05/29 12:36:05;;;;;;;2.75;2.40;;;26.30;44.90;;;;;;5072379;28;20031;-77
2021/05/29 12:38:31;;;;;;;3.45;2.03;;;25.30;46.40;;;;;;5072299;28;20102;-79
2021/05/29 12:41:11;;;;;;;3.63;2.38;;;25.70;47.00;;;;;;5071081;28;20028;-78
2021/05/29 12:43:41;;;;;;;2.05;1.63;;;26.50;46.40;;;;;;5072254;28;20113;-78
2021/05/29 12:46:24;;;;;;;3.33;2.40;;;27.30;45.20;;;;;;5072719;28;20555;-78
2021/05/29 12:49:06;;;;;;;6.63;3.08;;;27.70;44.10;;;;;;5073648;28;20035;-78
2021/05/29 12:51:51;;;;;;;4.07;2.60;;;27.70;43.90;;;;;;5075924;28;20249;-78
2021/05/29 12:54:17;;;;;;;4.03;3.53;;;26.90;44.90;;;;;;5091071;28;20040;-78
2021/05/29 12:56:57;;;;;;;2.70;2.05;;;26.30;45.00;;;;;;5074234;28;20028;-78
2021/05/29 12:59:25;;;;;;;4.07;2.58;;;25.80;46.20;;;;;;5074967;28;20142;-78